Moore, Indiana
Current Conditions -  °F | °C
As of 3:15 AM on Monday 24 Nov 2014 (Local Time) from KGWB Reporting Station
Overcast Overcast  
Wind Chill: 54°   Ceiling: 1000
Heat Index: 54°   Visibility: 10mi
Dew Point: 50°   Wind: 14mph
Humidity: 88%   Direction: 220°SW
Pressure: 29.13"   Gusts: 23mph
Location:  41.4294°N, 84.8751°W
Report Text: KGWB 240815Z AUTO 22012G20KT 10SM OVC010 12/10 A2913 RMK AO2
Loading
Personal Weather Stations






























Interactive Weather Map New forecast layout! Learn more

10-Day Weather Forecast

Advertisements
Track Severe Weather on mobile